Ochlockonee Bay, Florida
Current Conditions -  °F | °C
As of 12:53 PM on Friday 19 Dec 2014 (Local Time) from KTLH Reporting Station
Broken Clouds Broken Clouds  
Wind Chill: 63°   Ceiling: 5500
Heat Index: 63°   Visibility: 10mi
Dew Point: 36°   Wind: 0mph
Humidity: 37%   Direction: NA
Pressure: 30.14"   Gusts: NA
Location:  30.0223°N, 84.3911°W
Report Text: KTLH 191753Z 00000KT 10SM BKN055 BKN250 17/02 A3014 RMK AO2 SLP205 T01720022 10178 20067 58004 $
Loading
Personal Weather Stations






























Interactive Weather Map New forecast layout! Learn more

10-Day Weather Forecast

Advertisements
Track Severe Weather on mobile